createdAt,value
2024-02-26T00:00:20.766Z,1004.115806
2024-02-26T00:05:19.404Z,1004.123237
2024-02-26T00:10:19.486Z,1004.164959
2024-02-26T00:15:19.430Z,1004.158723
2024-02-26T00:20:19.635Z,1004.088354
2024-02-26T00:25:19.457Z,1004.029269
2024-02-26T00:30:19.623Z,1003.941883
2024-02-26T00:35:19.579Z,1003.802810
2024-02-26T00:40:19.438Z,1003.798788
2024-02-26T00:45:19.677Z,1003.775795
2024-02-26T00:50:19.654Z,1003.656179
2024-02-26T00:55:20.329Z,1003.537235
2024-02-26T01:00:19.933Z,1003.526402
2024-02-26T01:05:19.401Z,1003.480866
2024-02-26T01:10:19.885Z,1003.504676
2024-02-26T01:15:20.175Z,1003.450519
2024-02-26T01:20:19.947Z,1003.403221
2024-02-26T01:25:20.030Z,1003.302700
2024-02-26T01:30:20.203Z,1003.328787
2024-02-26T01:35:19.882Z,1003.294170
2024-02-26T01:40:19.686Z,1003.253544
2024-02-26T01:45:19.507Z,1003.146298
2024-02-26T01:50:19.541Z,1003.037654
2024-02-26T01:55:19.393Z,1002.998151
2024-02-26T02:00:20.417Z,1002.949351
2024-02-26T02:05:19.586Z,1002.977151
2024-02-26T02:10:19.712Z,1002.979634
2024-02-26T02:15:19.719Z,1002.927211
2024-02-26T02:20:20.183Z,1002.923372
2024-02-26T02:25:19.463Z,1002.896481
2024-02-26T02:30:20.653Z,1002.956491
2024-02-26T02:35:19.383Z,1002.953102
2024-02-26T02:40:19.473Z,1002.941420
2024-02-26T02:45:19.478Z,1002.881906
2024-02-26T02:50:20.029Z,1002.839782
2024-02-26T02:55:19.613Z,1002.891493
2024-02-26T03:00:20.406Z,1002.949603
2024-02-26T03:05:19.412Z,1003.035133
2024-02-26T03:10:19.365Z,1003.035981
2024-02-26T03:15:19.641Z,1003.078274
2024-02-26T03:20:19.787Z,1003.177450
2024-02-26T03:25:19.511Z,1003.266741
2024-02-26T03:30:19.444Z,1003.293581
2024-02-26T03:35:19.467Z,1003.277521
2024-02-26T03:40:19.521Z,1003.273043
2024-02-26T03:45:20.800Z,1003.333945
2024-02-26T03:50:19.502Z,1003.339760
2024-02-26T03:55:19.362Z,1003.375524
2024-02-26T04:00:22.017Z,1003.413049
2024-02-26T04:05:19.708Z,1003.444645
2024-02-26T04:10:19.459Z,1003.406451
2024-02-26T04:15:19.604Z,1003.402686
2024-02-26T04:20:19.856Z,1003.412344
2024-02-26T04:25:19.556Z,1003.320980
2024-02-26T04:30:19.630Z,1003.310003
2024-02-26T04:35:20.112Z,1003.361536
2024-02-26T04:40:19.715Z,1003.366170
2024-02-26T04:45:19.757Z,1003.348595
2024-02-26T04:50:19.414Z,1003.350725
2024-02-26T04:55:19.325Z,1003.410922
2024-02-26T05:00:55.000Z,1003.454607
2024-02-26T05:05:19.707Z,1003.461025
2024-02-26T05:10:20.041Z,1003.455932
2024-02-26T05:15:19.793Z,1003.504569
2024-02-26T05:20:20.058Z,1003.531558
2024-02-26T05:25:20.146Z,1003.504479
2024-02-26T05:30:19.673Z,1003.583660
2024-02-26T05:35:19.520Z,1003.611826
2024-02-26T05:40:19.717Z,1003.656769
2024-02-26T05:45:19.572Z,1003.651638
2024-02-26T05:50:19.929Z,1003.672077
2024-02-26T05:55:19.859Z,1003.719302
2024-02-26T06:00:19.988Z,1003.685998
2024-02-26T06:05:19.635Z,1003.739827
2024-02-26T06:10:19.386Z,1003.769406
2024-02-26T06:15:19.525Z,1003.839465
2024-02-26T06:20:19.583Z,1003.797259
2024-02-26T06:25:19.585Z,1003.797055
2024-02-26T06:30:19.748Z,1003.742839
2024-02-26T06:35:19.594Z,1003.699138
2024-02-26T06:40:19.775Z,1003.619080
2024-02-26T06:45:19.396Z,1003.664970
2024-02-26T06:50:19.895Z,1003.671180
2024-02-26T06:55:20.354Z,1003.670069
2024-02-26T07:00:20.054Z,1003.674711
2024-02-26T07:05:19.905Z,1003.744145
2024-02-26T07:10:19.589Z,1003.740189
2024-02-26T07:15:19.473Z,1003.746208
2024-02-26T07:20:19.865Z,1003.841290
2024-02-26T07:25:19.312Z,1003.832132
2024-02-26T07:30:19.486Z,1003.785853
2024-02-26T07:35:19.390Z,1003.751425
2024-02-26T07:40:19.629Z,1003.760633
2024-02-26T07:45:19.256Z,1003.714059
2024-02-26T07:50:20.000Z,1003.685630
2024-02-26T07:55:19.556Z,1003.734866
2024-02-26T08:00:19.641Z,1003.713843
2024-02-26T08:05:19.297Z,1003.715042
2024-02-26T08:10:19.529Z,1003.650232
2024-02-26T08:15:19.903Z,1003.673484
2024-02-26T08:20:19.702Z,1003.744666
2024-02-26T08:25:19.299Z,1003.685366
2024-02-26T08:30:19.702Z,1003.591646
2024-02-26T08:35:19.500Z,1003.555956
2024-02-26T08:40:19.235Z,1003.557532
2024-02-26T08:45:19.455Z,1003.575458
2024-02-26T08:50:19.432Z,1003.536815
2024-02-26T08:55:19.686Z,1003.532350
2024-02-26T09:00:19.483Z,1003.570832
2024-02-26T09:05:19.654Z,1003.555084
2024-02-26T09:10:19.614Z,1003.499870
2024-02-26T09:15:19.423Z,1003.439101
2024-02-26T09:20:19.827Z,1003.393810
2024-02-26T09:25:19.961Z,1003.366813
2024-02-26T09:30:19.399Z,1003.404909
2024-02-26T09:35:19.839Z,1003.374048
2024-02-26T09:40:19.351Z,1003.383384
2024-02-26T09:45:19.624Z,1003.387102
2024-02-26T09:50:19.678Z,1003.412289
2024-02-26T09:55:19.610Z,1003.474882
2024-02-26T10:00:19.515Z,1003.467764
2024-02-26T10:05:19.377Z,1003.480091
2024-02-26T10:10:19.634Z,1003.400381
2024-02-26T10:15:19.558Z,1003.330021
2024-02-26T10:20:20.159Z,1003.336485
2024-02-26T10:25:19.432Z,1003.375366
2024-02-26T10:30:19.695Z,1003.303841
2024-02-26T10:35:19.524Z,1003.353687
2024-02-26T10:40:19.423Z,1003.341411
2024-02-26T10:45:19.463Z,1003.428966
2024-02-26T10:50:19.524Z,1003.411963
2024-02-26T10:55:19.845Z,1003.411990
2024-02-26T11:00:19.435Z,1003.432132
2024-02-26T11:05:20.272Z,1003.365591
2024-02-26T11:10:19.867Z,1003.300400
2024-02-26T11:15:19.937Z,1003.243800
2024-02-26T11:20:19.951Z,1003.221396
2024-02-26T11:25:19.498Z,1003.282574
2024-02-26T11:30:19.632Z,1003.291052
2024-02-26T11:35:19.162Z,1003.255383
2024-02-26T11:40:19.357Z,1003.151631
2024-02-26T11:45:19.238Z,1003.141467
2024-02-26T11:50:19.438Z,1003.199017
2024-02-26T11:55:19.527Z,1003.208419
2024-02-26T12:00:22.137Z,1003.191627
2024-02-26T12:05:19.613Z,1003.151879
2024-02-26T12:10:19.362Z,1003.176859
2024-02-26T12:15:19.418Z,1003.191177
2024-02-26T12:20:19.671Z,1003.245428
2024-02-26T12:25:20.016Z,1003.275503
2024-02-26T12:30:19.273Z,1003.221883
2024-02-26T12:35:19.437Z,1003.233336
2024-02-26T12:40:20.098Z,1003.265899
2024-02-26T12:45:19.257Z,1003.296286
2024-02-26T12:50:19.246Z,1003.319612
2024-02-26T12:55:20.172Z,1003.342471
2024-02-26T13:00:19.567Z,1003.328795
2024-02-26T13:05:19.678Z,1003.429762
2024-02-26T13:10:19.265Z,1003.419399
2024-02-26T13:15:19.550Z,1003.425232
2024-02-26T13:20:19.750Z,1003.472251
2024-02-26T13:25:19.329Z,1003.499024
2024-02-26T13:30:19.427Z,1003.600128
2024-02-26T13:35:19.425Z,1003.673544
2024-02-26T13:40:19.528Z,1003.733345
2024-02-26T13:45:19.422Z,1003.752897
2024-02-26T13:50:19.301Z,1003.800379
2024-02-26T13:55:19.590Z,1003.825523
2024-02-26T14:00:19.957Z,1003.881590
2024-02-26T14:05:19.422Z,1003.919756
2024-02-26T14:10:19.413Z,1003.960887
2024-02-26T14:15:19.261Z,1004.013417
2024-02-26T14:20:19.321Z,1004.184617
2024-02-26T14:25:19.276Z,1004.274959
2024-02-26T14:30:19.261Z,1004.417713
2024-02-26T14:35:19.461Z,1004.570672
2024-02-26T14:40:19.565Z,1004.584687
2024-02-26T14:45:19.161Z,1004.644511
2024-02-26T14:50:19.306Z,1004.639967
2024-02-26T14:55:19.597Z,1004.636226
2024-02-26T15:00:19.472Z,1004.706408
2024-02-26T15:05:19.450Z,1004.752152
2024-02-26T15:10:19.848Z,1004.795769
2024-02-26T15:15:20.072Z,1004.764649
2024-02-26T15:20:19.933Z,1004.726452
2024-02-26T15:25:19.591Z,1004.725719
2024-02-26T15:30:19.711Z,1004.751936
2024-02-26T15:35:19.483Z,1004.855582
2024-02-26T15:40:20.036Z,1004.914774
2024-02-26T15:45:19.386Z,1004.927713
2024-02-26T15:50:19.525Z,1004.998008
2024-02-26T15:55:22.533Z,1005.047856
2024-02-26T16:00:19.338Z,1005.123362
2024-02-26T16:05:19.446Z,1005.247251
2024-02-26T16:10:19.500Z,1005.332519
2024-02-26T16:15:19.207Z,1005.455975
2024-02-26T16:20:19.559Z,1005.322790
2024-02-26T16:25:19.540Z,1005.443966
2024-02-26T16:30:19.670Z,1005.666531
2024-02-26T16:35:19.146Z,1005.848790
2024-02-26T16:40:19.631Z,1005.933372
2024-02-26T16:45:19.427Z,1006.090896
2024-02-26T16:50:19.339Z,1006.251362
2024-02-26T16:55:19.077Z,1006.358682
2024-02-26T17:00:19.292Z,1006.555909
2024-02-26T17:05:19.335Z,1006.633372
2024-02-26T17:10:19.336Z,1006.634745
2024-02-26T17:15:19.403Z,1006.695505
2024-02-26T17:20:19.204Z,1006.707837
2024-02-26T17:25:19.467Z,1006.730091
2024-02-26T17:30:19.200Z,1006.836990
2024-02-26T17:35:19.420Z,1006.846053
2024-02-26T17:40:19.306Z,1006.975353
2024-02-26T17:45:19.405Z,1007.100786
2024-02-26T17:50:19.516Z,1007.196461
2024-02-26T17:55:19.417Z,1007.187664
2024-02-26T18:00:19.158Z,1007.122120
2024-02-26T18:05:19.522Z,1007.156910
2024-02-26T18:10:19.143Z,1007.256038
2024-02-26T18:15:19.602Z,1007.252633
2024-02-26T18:20:19.573Z,1007.443896
2024-02-26T18:25:19.145Z,1007.492443
2024-02-26T18:30:20.442Z,1007.523159
2024-02-26T18:35:19.657Z,1007.569704
2024-02-26T18:40:19.500Z,1007.645934
2024-02-26T18:45:19.412Z,1007.662163
2024-02-26T18:50:19.119Z,1007.719550
2024-02-26T18:55:19.252Z,1007.745500
2024-02-26T19:00:19.319Z,1007.759528
2024-02-26T19:05:19.049Z,1007.864464
2024-02-26T19:10:19.137Z,1007.952935
2024-02-26T19:15:19.755Z,1007.975002
2024-02-26T19:20:19.158Z,1008.015936
2024-02-26T19:25:19.213Z,1008.041567
2024-02-26T19:30:19.250Z,1008.089954
2024-02-26T19:35:19.213Z,1008.104046
2024-02-26T19:40:19.336Z,1008.212888
2024-02-26T19:45:19.303Z,1008.218358
2024-02-26T19:50:19.404Z,1008.199397
2024-02-26T19:55:19.618Z,1008.255702
2024-02-26T20:00:19.747Z,1008.281044
2024-02-26T20:05:19.462Z,1008.348179
2024-02-26T20:10:19.021Z,1008.445818
2024-02-26T20:15:19.188Z,1008.508002
2024-02-26T20:20:20.203Z,1008.588556
2024-02-26T20:25:18.997Z,1008.631964
2024-02-26T20:30:19.017Z,1008.676543
2024-02-26T20:35:19.397Z,1008.703650
2024-02-26T20:40:20.055Z,1008.796067
2024-02-26T20:45:19.476Z,1008.903985
2024-02-26T20:50:19.258Z,1008.960156
2024-02-26T20:55:19.480Z,1009.057097
2024-02-26T21:00:19.445Z,1009.077949
2024-02-26T21:05:19.379Z,1009.034780
2024-02-26T21:10:19.431Z,1009.146133
2024-02-26T21:15:24.505Z,1009.160844
2024-02-26T21:20:19.298Z,1009.111954
2024-02-26T21:25:19.234Z,1009.132016
2024-02-26T21:30:19.266Z,1009.210279
2024-02-26T21:35:19.286Z,1009.263800
2024-02-26T21:40:19.217Z,1009.362729
2024-02-26T21:45:19.683Z,1009.417278
2024-02-26T21:50:19.370Z,1009.414312
2024-02-26T21:55:19.222Z,1009.444143
2024-02-26T22:00:19.321Z,1009.514571
2024-02-26T22:05:19.339Z,1009.619760
2024-02-26T22:10:19.207Z,1009.702808
2024-02-26T22:15:19.403Z,1009.675763
2024-02-26T22:20:19.313Z,1009.648200
2024-02-26T22:25:19.807Z,1009.634539
2024-02-26T22:30:19.196Z,1009.693924
2024-02-26T22:35:19.144Z,1009.789368
2024-02-26T22:40:19.034Z,1009.933582
2024-02-26T22:45:19.299Z,1009.930003
2024-02-26T22:50:19.442Z,1009.893641
2024-02-26T22:55:19.300Z,1009.970570
2024-02-26T23:00:20.269Z,1010.119838
2024-02-26T23:05:19.684Z,1010.135413
2024-02-26T23:10:18.984Z,1010.208661
2024-02-26T23:15:19.445Z,1010.205136
2024-02-26T23:20:19.183Z,1010.305768
2024-02-26T23:25:19.030Z,1010.343746
2024-02-26T23:30:19.459Z,1010.372595
2024-02-26T23:35:19.065Z,1010.411005
2024-02-26T23:40:19.512Z,1010.392529
2024-02-26T23:45:19.047Z,1010.479270
2024-02-26T23:50:19.090Z,1010.509002
2024-02-26T23:55:19.128Z,1010.463375
